Time;durP1;ratioP1;P1;durP2;ratioP2;P2;SDS_P1;SDS_P2;PMS_P1;PMS_P2;Temp;Humidity;BMP_temperature;BMP_pressure;BME280_temperature;BME280_humidity;BME280_pressure;Samples;Min_cycle;Max_cycle;Signal;HPM_P1;HPM_P2
2020/12/20 00:00:30;;;;;;;10.32;6.35;;;6.40;99.90;;;;;;5061724;28;20093;-80
2020/12/20 00:02:56;;;;;;;11.60;7.18;;;6.40;99.90;;;;;;5078306;28;20035;-80
2020/12/20 00:05:24;;;;;;;11.63;6.93;;;6.40;99.90;;;;;;5078317;28;20020;-80
2020/12/20 00:07:51;;;;;;;12.60;7.32;;;6.30;99.90;;;;;;5096350;28;20028;-79
2020/12/20 00:10:17;;;;;;;11.30;6.70;;;6.30;99.90;;;;;;5078113;28;20055;-80
2020/12/20 00:12:44;;;;;;;9.90;6.03;;;6.30;99.90;;;;;;5078093;28;20399;-80
2020/12/20 00:15:09;;;;;;;10.15;6.53;;;6.40;99.90;;;;;;5078097;28;20118;-80
2020/12/20 00:17:35;;;;;;;9.95;6.32;;;6.40;99.90;;;;;;5096066;28;20518;-80
2020/12/20 00:20:06;;;;;;;10.80;5.78;;;6.40;99.90;;;;;;5096064;28;20028;-80
2020/12/20 00:22:31;;;;;;;7.82;5.25;;;6.50;99.90;;;;;;5096005;28;20433;-81
2020/12/20 00:24:58;;;;;;;12.27;6.18;;;6.50;99.90;;;;;;5095877;28;20502;-81
2020/12/20 00:27:24;;;;;;;9.43;6.07;;;6.50;99.90;;;;;;5096248;28;20024;-80
2020/12/20 00:29:50;;;;;;;8.18;5.90;;;6.40;99.90;;;;;;5077707;28;20054;-81
2020/12/20 00:32:16;;;;;;;10.52;6.40;;;6.30;99.90;;;;;;5095868;28;20016;-81
2020/12/20 00:34:42;;;;;;;13.23;6.70;;;6.30;99.90;;;;;;5095800;28;20482;-80
2020/12/20 00:37:08;;;;;;;11.10;6.47;;;6.20;99.90;;;;;;5077612;28;20031;-80
2020/12/20 00:39:34;;;;;;;13.75;6.63;;;6.20;99.90;;;;;;5095754;28;20031;-80
2020/12/20 00:42:03;;;;;;;10.52;6.47;;;6.20;99.90;;;;;;5095713;28;20070;-80
2020/12/20 00:44:29;;;;;;;11.75;7.10;;;6.20;99.90;;;;;;5095609;28;20107;-81
2020/12/20 00:46:56;;;;;;;13.73;7.25;;;6.30;99.90;;;;;;5077491;28;20058;-80
2020/12/20 00:49:29;;;;;;;11.00;6.60;;;6.30;99.90;;;;;;5095479;28;20527;-80
2020/12/20 00:51:58;;;;;;;11.60;7.50;;;6.30;99.90;;;;;;5077376;28;20020;-80
2020/12/20 00:54:27;;;;;;;11.45;6.35;;;6.30;99.90;;;;;;5095447;28;20519;-81
2020/12/20 00:56:53;;;;;;;12.35;7.50;;;6.30;99.90;;;;;;5077166;28;20103;-81
2020/12/20 00:59:19;;;;;;;9.55;6.90;;;6.30;99.90;;;;;;5077269;28;20030;-81
2020/12/20 01:01:45;;;;;;;11.57;6.78;;;6.20;99.90;;;;;;5077171;28;20390;-81
2020/12/20 01:04:10;;;;;;;11.35;6.35;;;6.20;99.90;;;;;;5077093;28;20391;-80
2020/12/20 01:06:36;;;;;;;10.30;6.30;;;6.20;99.90;;;;;;5077114;28;20433;-80
2020/12/20 01:09:04;;;;;;;9.63;6.20;;;6.30;99.90;;;;;;5077051;28;20034;-80
2020/12/20 01:11:29;;;;;;;14.60;7.40;;;6.30;99.90;;;;;;5095334;28;20463;-80
2020/12/20 01:13:56;;;;;;;15.85;7.93;;;6.30;99.90;;;;;;5076842;28;20023;-80
2020/12/20 01:16:26;;;;;;;17.25;9.35;;;6.30;99.90;;;;;;5094342;28;20491;-80
2020/12/20 01:18:56;;;;;;;11.57;7.53;;;6.20;99.90;;;;;;5076825;28;20368;-81
2020/12/20 01:21:22;;;;;;;13.10;7.78;;;6.20;99.90;;;;;;5076820;28;20474;-81
2020/12/20 01:23:48;;;;;;;12.07;7.38;;;6.20;99.90;;;;;;5094672;28;20044;-80
2020/12/20 01:26:14;;;;;;;12.32;6.88;;;6.20;99.90;;;;;;5076645;28;20054;-80
2020/12/20 01:28:40;;;;;;;12.93;7.05;;;6.20;99.90;;;;;;5094803;28;20410;-80
2020/12/20 01:31:08;;;;;;;10.60;6.22;;;6.10;99.90;;;;;;5094640;28;20103;-80
2020/12/20 01:33:35;;;;;;;10.75;6.20;;;6.10;99.90;;;;;;5076523;28;20368;-80
2020/12/20 01:36:12;;;;;;;10.70;5.90;;;6.10;99.90;;;;;;5076828;28;20035;-80
2020/12/20 01:38:38;;;;;;;10.65;5.75;;;6.10;99.90;;;;;;5076377;28;20020;-81
2020/12/20 01:41:05;;;;;;;11.20;6.15;;;6.20;99.90;;;;;;5094568;28;20146;-80
2020/12/20 01:43:47;;;;;;;11.80;6.15;;;6.10;99.90;;;;;;5094507;28;20546;-80
2020/12/20 01:46:19;;;;;;;11.10;6.35;;;6.10;99.90;;;;;;5094486;28;20020;-80
2020/12/20 01:48:46;;;;;;;12.57;6.43;;;6.10;99.90;;;;;;5076246;28;20020;-80
2020/12/20 01:51:12;;;;;;;8.27;5.65;;;6.10;99.90;;;;;;5075959;28;20028;-80
2020/12/20 01:53:39;;;;;;;9.65;6.05;;;6.20;99.90;;;;;;5076142;28;20429;-81
2020/12/20 01:56:05;;;;;;;10.43;5.25;;;6.20;99.90;;;;;;5094591;28;20026;-80
2020/12/20 01:58:36;;;;;;;11.38;6.03;;;6.20;99.90;;;;;;5076047;28;20016;-80
2020/12/20 02:01:12;;;;;;;11.45;5.68;;;6.30;99.90;;;;;;5076027;28;20024;-80
2020/12/20 02:03:38;;;;;;;10.07;5.28;;;6.30;99.90;;;;;;5076009;28;20504;-80
2020/12/20 02:06:05;;;;;;;11.93;6.00;;;6.40;99.90;;;;;;5075980;28;20024;-80
2020/12/20 02:08:31;;;;;;;10.75;5.60;;;6.50;99.90;;;;;;5094375;28;20027;-80
2020/12/20 02:11:15;;;;;;;7.47;5.05;;;6.50;99.90;;;;;;5093971;28;20534;-80
2020/12/20 02:13:42;;;;;;;9.13;5.20;;;6.50;99.90;;;;;;5075868;28;20046;-80
2020/12/20 02:16:08;;;;;;;9.55;5.47;;;6.50;99.90;;;;;;5093875;28;20103;-80
2020/12/20 02:18:34;;;;;;;10.18;5.90;;;6.40;99.90;;;;;;5075805;28;20024;-80
2020/12/20 02:20:59;;;;;;;9.40;6.05;;;6.40;99.90;;;;;;5093880;28;20383;-81
2020/12/20 02:23:25;;;;;;;12.07;5.03;;;6.30;99.90;;;;;;5075557;28;20051;-80
2020/12/20 02:25:51;;;;;;;7.18;4.93;;;6.30;99.90;;;;;;5076234;28;20031;-81
2020/12/20 02:28:18;;;;;;;9.40;5.78;;;6.40;99.90;;;;;;5074815;28;20028;-80
2020/12/20 02:30:44;;;;;;;9.65;4.90;;;6.50;99.90;;;;;;5093704;28;20103;-81
2020/12/20 02:33:10;;;;;;;9.75;4.78;;;6.50;99.90;;;;;;5094320;28;20471;-80
2020/12/20 02:35:35;;;;;;;8.02;4.95;;;6.60;99.90;;;;;;5093716;28;20016;-80
2020/12/20 02:38:01;;;;;;;6.47;3.95;;;6.60;99.90;;;;;;5093742;28;20055;-80
2020/12/20 02:40:30;;;;;;;9.30;4.45;;;6.60;99.90;;;;;;5093736;28;20027;-80
2020/12/20 02:42:56;;;;;;;6.15;4.30;;;6.70;99.90;;;;;;5093649;28;20024;-80
2020/12/20 02:45:21;;;;;;;7.82;4.82;;;6.80;99.90;;;;;;5075504;28;20035;-80
2020/12/20 02:47:47;;;;;;;8.68;4.32;;;6.80;99.90;;;;;;5093556;28;20088;-81
2020/12/20 02:50:13;;;;;;;6.53;4.10;;;6.80;99.90;;;;;;5075399;28;20028;-80
2020/12/20 02:52:38;;;;;;;7.47;4.30;;;6.80;99.90;;;;;;5093515;28;20020;-80
2020/12/20 02:55:04;;;;;;;12.13;4.70;;;6.90;99.90;;;;;;5075445;28;20054;-80
2020/12/20 02:57:30;;;;;;;11.05;4.28;;;6.90;99.90;;;;;;5076156;28;20020;-81
2020/12/20 02:59:55;;;;;;;7.60;4.72;;;6.90;99.90;;;;;;5095038;28;20450;-80
2020/12/20 03:02:21;;;;;;;7.05;4.10;;;7.10;99.90;;;;;;5093745;28;20487;-80
2020/12/20 03:04:46;;;;;;;7.05;4.40;;;7.20;99.90;;;;;;5075492;28;20020;-80
2020/12/20 03:07:12;;;;;;;6.97;4.40;;;7.30;99.90;;;;;;5075297;28;20115;-80
2020/12/20 03:09:38;;;;;;;9.65;4.75;;;7.30;99.90;;;;;;5093333;28;20479;-80
2020/12/20 03:12:03;;;;;;;6.55;3.95;;;7.30;99.90;;;;;;5075222;28;20388;-80
2020/12/20 03:14:29;;;;;;;7.40;4.65;;;7.20;99.90;;;;;;5075347;28;20024;-80
2020/12/20 03:16:55;;;;;;;6.85;4.28;;;7.20;99.90;;;;;;5075100;28;20031;-80
2020/12/20 03:19:20;;;;;;;11.82;5.05;;;7.10;99.90;;;;;;5075072;28;20070;-80
2020/12/20 03:21:46;;;;;;;7.60;4.15;;;7.10;99.90;;;;;;5075135;28;20028;-80
2020/12/20 03:24:12;;;;;;;7.43;4.20;;;7.00;99.90;;;;;;5075001;28;20151;-80
2020/12/20 03:26:37;;;;;;;6.78;4.32;;;7.00;99.90;;;;;;5075154;28;20043;-80
2020/12/20 03:29:03;;;;;;;8.30;4.43;;;7.10;99.90;;;;;;5093258;28;20024;-80
2020/12/20 03:31:29;;;;;;;10.30;5.25;;;7.20;99.90;;;;;;5075053;28;20089;-80
2020/12/20 03:33:54;;;;;;;6.97;4.55;;;7.20;99.90;;;;;;5075100;28;20027;-80
2020/12/20 03:36:20;;;;;;;7.65;4.45;;;7.20;99.90;;;;;;5093131;28;20030;-80
2020/12/20 03:38:46;;;;;;;7.40;4.47;;;7.10;99.90;;;;;;5076412;28;20044;-80
2020/12/20 03:41:12;;;;;;;7.65;4.45;;;7.00;99.90;;;;;;5096905;28;20383;-80
2020/12/20 03:43:37;;;;;;;9.65;4.68;;;7.10;99.90;;;;;;5096838;28;20056;-80
2020/12/20 03:46:03;;;;;;;8.43;4.50;;;7.10;99.90;;;;;;5078803;28;20073;-80
2020/12/20 03:48:29;;;;;;;10.20;4.85;;;7.20;99.90;;;;;;5096759;28;20035;-80
2020/12/20 03:50:54;;;;;;;7.25;4.65;;;7.10;99.90;;;;;;5078542;28;20024;-80
2020/12/20 03:53:20;;;;;;;6.88;4.45;;;7.10;99.90;;;;;;5096640;28;20379;-80
2020/12/20 03:55:46;;;;;;;8.00;4.90;;;7.00;99.90;;;;;;5096635;28;20021;-80
2020/12/20 03:58:11;;;;;;;7.53;4.45;;;7.00;99.90;;;;;;5078411;28;20016;-80
2020/12/20 04:00:37;;;;;;;7.97;5.32;;;7.00;99.90;;;;;;5078391;28;20024;-80
2020/12/20 04:03:03;;;;;;;8.25;4.78;;;6.90;99.90;;;;;;5096730;28;20028;-80
2020/12/20 04:05:29;;;;;;;8.82;5.28;;;6.90;99.90;;;;;;5078312;28;20039;-80
2020/12/20 04:07:54;;;;;;;10.25;5.05;;;6.90;99.90;;;;;;5078232;28;20157;-80
2020/12/20 04:10:20;;;;;;;8.23;5.32;;;7.00;99.90;;;;;;5078164;28;20114;-80
2020/12/20 04:12:46;;;;;;;7.70;4.65;;;7.00;99.90;;;;;;5078142;28;20024;-80
2020/12/20 04:15:11;;;;;;;7.25;4.97;;;7.00;99.90;;;;;;5078160;28;20111;-80
2020/12/20 04:17:37;;;;;;;8.45;4.68;;;7.10;99.90;;;;;;5097406;28;20024;-80
2020/12/20 04:20:03;;;;;;;8.13;4.93;;;7.20;99.90;;;;;;5078176;28;20020;-80
2020/12/20 04:22:28;;;;;;;8.45;5.38;;;7.30;99.90;;;;;;5077932;28;20028;-80
2020/12/20 04:24:54;;;;;;;9.15;5.45;;;7.30;99.90;;;;;;5074461;28;20404;-80
2020/12/20 04:27:20;;;;;;;7.93;4.97;;;7.30;99.90;;;;;;5076035;28;20028;-80
2020/12/20 04:29:45;;;;;;;8.40;4.88;;;7.20;99.90;;;;;;5075667;28;20028;-80
2020/12/20 04:32:11;;;;;;;6.97;4.70;;;7.10;99.90;;;;;;5075929;28;20078;-80
2020/12/20 04:34:37;;;;;;;8.13;5.20;;;7.10;99.90;;;;;;5074398;28;20070;-80
2020/12/20 04:37:03;;;;;;;9.88;5.78;;;7.00;99.90;;;;;;5075562;28;20361;-80
2020/12/20 04:39:28;;;;;;;6.25;4.55;;;7.00;99.90;;;;;;5074274;28;20028;-80
2020/12/20 04:41:54;;;;;;;9.75;5.18;;;7.00;99.90;;;;;;5075522;28;20499;-80
2020/12/20 04:44:20;;;;;;;7.05;4.90;;;7.00;99.90;;;;;;5074217;28;20395;-80
2020/12/20 04:46:47;;;;;;;8.85;5.57;;;7.00;99.90;;;;;;5075708;28;20089;-80
2020/12/20 04:49:14;;;;;;;8.45;5.38;;;7.00;99.90;;;;;;5075380;28;20475;-80
2020/12/20 04:51:40;;;;;;;8.23;4.93;;;7.00;99.90;;;;;;5072972;28;20029;-80
2020/12/20 04:54:09;;;;;;;8.20;5.25;;;7.00;99.90;;;;;;5074022;28;20545;-80
2020/12/20 04:56:38;;;;;;;7.25;4.60;;;7.00;99.90;;;;;;5075198;28;20103;-80
2020/12/20 04:59:07;;;;;;;11.73;5.47;;;7.00;99.90;;;;;;5074272;28;20028;-80
2020/12/20 05:01:34;;;;;;;8.02;5.45;;;7.10;99.90;;;;;;5075146;28;20024;-80
2020/12/20 05:04:00;;;;;;;12.10;5.57;;;7.10;99.90;;;;;;5073802;28;20111;-80
2020/12/20 05:06:28;;;;;;;9.57;5.10;;;7.10;99.90;;;;;;5073772;28;20028;-80
2020/12/20 05:09:14;;;;;;;9.55;5.20;;;7.00;99.90;;;;;;5073713;28;20032;-80
2020/12/20 05:11:41;;;;;;;7.78;5.10;;;7.00;99.90;;;;;;5073495;28;20039;-80
2020/12/20 05:14:08;;;;;;;8.25;4.93;;;7.00;99.90;;;;;;5073627;28;20024;-80
2020/12/20 05:16:36;;;;;;;9.90;5.10;;;6.90;99.90;;;;;;5074810;28;20024;-80
2020/12/20 05:19:04;;;;;;;6.78;4.90;;;7.00;99.90;;;;;;5073466;28;20021;-80
2020/12/20 05:21:31;;;;;;;7.95;5.13;;;6.90;99.90;;;;;;5074737;28;20093;-80
2020/12/20 05:23:58;;;;;;;5.97;4.40;;;6.90;99.90;;;;;;5082182;28;20379;-80
2020/12/20 05:26:28;;;;;;;6.53;4.20;;;6.90;99.90;;;;;;5094831;28;20024;-81
2020/12/20 05:29:07;;;;;;;7.63;4.60;;;6.90;99.90;;;;;;5094842;28;20114;-80
2020/12/20 05:31:33;;;;;;;9.98;5.65;;;7.00;99.90;;;;;;5076554;28;20027;-80
2020/12/20 05:33:58;;;;;;;8.15;5.25;;;6.90;99.90;;;;;;5076495;28;20111;-80
2020/12/20 05:36:26;;;;;;;6.47;4.30;;;6.90;99.90;;;;;;5094661;28;20352;-80
2020/12/20 05:38:51;;;;;;;10.30;5.20;;;6.90;99.90;;;;;;5076452;28;20471;-80
2020/12/20 05:41:30;;;;;;;7.00;5.05;;;6.90;99.90;;;;;;5094614;28;20027;-80
2020/12/20 05:44:24;;;;;;;7.72;5.32;;;6.80;99.90;;;;;;5076413;28;20024;-80
2020/12/20 05:46:51;;;;;;;8.53;5.37;;;6.80;99.90;;;;;;5076334;28;20383;-80
2020/12/20 05:49:17;;;;;;;8.40;5.07;;;6.80;99.90;;;;;;5076239;28;20427;-80
2020/12/20 05:52:04;;;;;;;7.80;4.65;;;6.80;99.90;;;;;;5076135;28;20028;-80
2020/12/20 05:54:35;;;;;;;13.18;5.15;;;6.90;99.90;;;;;;5060186;28;20109;-80
2020/12/20 05:57:12;;;;;;;10.02;5.07;;;6.90;99.90;;;;;;5076165;28;20024;-80
2020/12/20 05:59:39;;;;;;;8.38;5.05;;;6.90;99.90;;;;;;5076122;28;20020;-80
2020/12/20 06:02:06;;;;;;;7.15;4.70;;;6.80;99.90;;;;;;5075854;28;20030;-80
2020/12/20 06:04:33;;;;;;;8.35;5.15;;;6.80;99.90;;;;;;5094172;28;20097;-80
2020/12/20 06:06:59;;;;;;;7.55;4.68;;;6.80;99.90;;;;;;5094379;28;20027;-80
2020/12/20 06:09:29;;;;;;;7.03;5.13;;;6.80;99.90;;;;;;5075947;28;20020;-80
2020/12/20 06:11:56;;;;;;;6.45;4.32;;;6.80;99.90;;;;;;5075812;28;20048;-80
2020/12/20 06:14:27;;;;;;;7.95;4.70;;;6.80;99.90;;;;;;5094284;28;20016;-80
2020/12/20 06:17:16;;;;;;;8.95;4.80;;;6.70;99.90;;;;;;5075775;28;20027;-80
2020/12/20 06:20:00;;;;;;;8.65;4.30;;;6.70;99.90;;;;;;5080859;28;20479;-80
2020/12/20 06:22:33;;;;;;;9.68;4.90;;;6.80;99.90;;;;;;5076143;28;20073;-80
2020/12/20 06:25:04;;;;;;;7.05;4.45;;;6.90;99.90;;;;;;5075697;28;20070;-80
2020/12/20 06:27:31;;;;;;;9.60;4.63;;;6.80;99.90;;;;;;5093865;28;20042;-80
2020/12/20 06:30:00;;;;;;;6.28;4.10;;;6.80;99.90;;;;;;5075538;28;20034;-80
2020/12/20 06:32:46;;;;;;;9.07;5.07;;;6.80;99.90;;;;;;5093786;28;20023;-80
2020/12/20 06:35:27;;;;;;;6.22;4.50;;;6.80;99.90;;;;;;5093728;28;20016;-80
2020/12/20 06:37:54;;;;;;;7.97;4.63;;;6.70;99.90;;;;;;5093600;28;20025;-80
2020/12/20 06:40:28;;;;;;;8.43;4.90;;;6.70;99.90;;;;;;5093808;28;20487;-83
2020/12/20 06:42:55;;;;;;;7.28;4.43;;;6.70;99.90;;;;;;5093601;28;20078;-79
2020/12/20 06:45:21;;;;;;;14.75;7.38;;;6.70;99.90;;;;;;5075497;28;20028;-80
2020/12/20 06:47:49;;;;;;;11.38;5.63;;;6.60;99.90;;;;;;5093608;28;20042;-80
2020/12/20 06:50:37;;;;;;;8.57;4.95;;;6.60;99.90;;;;;;5075354;28;20027;-80
2020/12/20 06:53:03;;;;;;;9.57;5.70;;;6.60;99.90;;;;;;5075343;28;20110;-80
2020/12/20 06:55:29;;;;;;;7.88;5.13;;;6.60;99.90;;;;;;5093556;28;20486;-80
2020/12/20 06:58:17;;;;;;;7.43;4.90;;;6.60;99.90;;;;;;5075316;28;20069;-80
2020/12/20 07:00:57;;;;;;;7.57;5.15;;;6.60;99.90;;;;;;5075327;28;20030;-80
2020/12/20 07:03:23;;;;;;;7.05;4.43;;;6.60;99.90;;;;;;5075357;28;20471;-80
2020/12/20 07:05:52;;;;;;;6.28;4.22;;;6.60;99.90;;;;;;5075263;28;20031;-80
2020/12/20 07:08:25;;;;;;;8.30;4.60;;;6.60;99.90;;;;;;5075170;28;20027;-80
2020/12/20 07:10:55;;;;;;;7.20;5.18;;;6.60;99.90;;;;;;5075073;28;20115;-80
2020/12/20 07:13:34;;;;;;;5.25;3.75;;;6.60;99.90;;;;;;5075550;28;20024;-80
2020/12/20 07:16:04;;;;;;;8.02;4.78;;;6.60;99.90;;;;;;5079133;28;20059;-80
2020/12/20 07:18:44;;;;;;;17.35;7.43;;;6.70;99.90;;;;;;5079277;28;20028;-80
2020/12/20 07:21:20;;;;;;;12.98;7.50;;;6.70;99.90;;;;;;5097331;28;20034;-80
2020/12/20 07:23:47;;;;;;;20.38;13.38;;;6.80;99.90;;;;;;5097127;28;20123;-80
2020/12/20 07:26:14;;;;;;;14.88;9.85;;;6.70;99.90;;;;;;5097131;28;20052;-80
2020/12/20 07:28:40;;;;;;;15.50;9.80;;;6.70;99.90;;;;;;5097388;28;20028;-80
2020/12/20 07:31:13;;;;;;;20.38;11.52;;;6.70;99.90;;;;;;5097001;28;20058;-80
2020/12/20 07:33:39;;;;;;;12.45;7.53;;;6.70;99.90;;;;;;5078797;28;20023;-80
2020/12/20 07:36:04;;;;;;;11.57;6.72;;;6.70;99.90;;;;;;5078789;28;20020;-80
2020/12/20 07:38:30;;;;;;;9.88;6.10;;;6.60;99.90;;;;;;5096870;28;20103;-80
2020/12/20 07:40:56;;;;;;;8.48;5.95;;;6.70;99.90;;;;;;5097356;28;20073;-80
2020/12/20 07:43:22;;;;;;;10.10;6.15;;;6.70;99.90;;;;;;5096818;28;20104;-80
2020/12/20 07:46:02;;;;;;;8.32;5.03;;;6.70;99.90;;;;;;5078645;28;20024;-80
2020/12/20 07:48:28;;;;;;;9.45;5.20;;;6.70;99.90;;;;;;5097252;28;20039;-80
2020/12/20 07:51:13;;;;;;;9.60;5.40;;;6.80;99.90;;;;;;5078391;28;20035;-80
2020/12/20 07:53:53;;;;;;;8.35;5.78;;;6.70;99.90;;;;;;5062904;28;20479;-80
2020/12/20 07:56:20;;;;;;;8.13;4.95;;;6.80;99.90;;;;;;5096931;28;20051;-80
2020/12/20 07:58:47;;;;;;;13.95;6.53;;;6.80;99.90;;;;;;5078397;28;20024;-78
2020/12/20 08:01:13;;;;;;;9.98;6.18;;;6.80;99.90;;;;;;5096537;28;20502;-80
2020/12/20 08:03:39;;;;;;;18.58;7.75;;;6.80;99.90;;;;;;5078328;28;20024;-79
2020/12/20 08:06:12;;;;;;;12.20;6.53;;;6.70;99.90;;;;;;5096366;28;20463;-80
2020/12/20 08:08:39;;;;;;;11.90;5.97;;;6.80;99.90;;;;;;5078207;28;20531;-80
2020/12/20 08:11:26;;;;;;;8.30;5.65;;;6.80;99.90;;;;;;5096223;28;20115;-80
2020/12/20 08:13:58;;;;;;;8.07;4.93;;;7.00;99.90;;;;;;5096307;28;20154;-80
2020/12/20 08:16:31;;;;;;;12.57;7.15;;;7.10;99.90;;;;;;5096103;28;20420;-80
2020/12/20 08:19:03;;;;;;;13.65;7.70;;;7.10;99.90;;;;;;5077990;28;20066;-80
2020/12/20 08:21:47;;;;;;;8.60;5.50;;;7.20;99.90;;;;;;5077956;28;20032;-80
2020/12/20 08:24:14;;;;;;;7.97;4.55;;;7.20;99.90;;;;;;5074275;28;20048;-80
2020/12/20 08:26:41;;;;;;;11.90;6.50;;;7.20;99.90;;;;;;5075727;28;20028;-80
2020/12/20 08:29:07;;;;;;;6.68;4.72;;;7.20;99.90;;;;;;5075963;28;20058;-80
2020/12/20 08:31:34;;;;;;;8.20;5.40;;;7.30;99.90;;;;;;5074285;28;20029;-79
2020/12/20 08:34:12;;;;;;;9.93;6.32;;;7.40;99.90;;;;;;5075621;28;20103;-80
2020/12/20 08:36:43;;;;;;;7.47;5.22;;;7.50;99.90;;;;;;5075946;28;20017;-80
2020/12/20 08:39:09;;;;;;;8.98;5.13;;;7.50;99.90;;;;;;5074362;28;20020;-80
2020/12/20 08:41:34;;;;;;;7.20;4.90;;;7.60;99.90;;;;;;5075542;28;20380;-79
2020/12/20 08:44:13;;;;;;;7.65;4.40;;;7.70;99.90;;;;;;5075480;28;20403;-80
2020/12/20 08:46:42;;;;;;;9.35;4.80;;;7.80;99.90;;;;;;5074315;28;20543;-80
2020/12/20 08:49:18;;;;;;;8.35;5.22;;;8.00;99.90;;;;;;5076247;28;20456;-80
2020/12/20 08:51:45;;;;;;;8.38;5.25;;;8.40;99.90;;;;;;5074267;28;20031;-80
2020/12/20 08:54:13;;;;;;;8.27;4.70;;;8.60;99.90;;;;;;5074025;28;20032;-80
2020/12/20 08:56:55;;;;;;;7.78;4.50;;;8.80;99.90;;;;;;5073994;28;20027;-80
2020/12/20 08:59:31;;;;;;;9.07;5.97;;;8.80;99.90;;;;;;5075191;28;20020;-80
2020/12/20 09:01:58;;;;;;;7.95;5.20;;;8.90;99.90;;;;;;5073810;28;20032;-80
2020/12/20 09:04:26;;;;;;;8.35;4.75;;;9.00;99.90;;;;;;5073834;28;20029;-80
2020/12/20 09:07:03;;;;;;;7.88;5.25;;;9.10;99.90;;;;;;5075015;28;20078;-80
2020/12/20 09:09:29;;;;;;;6.82;4.25;;;9.20;99.90;;;;;;5073764;28;20123;-80
2020/12/20 09:12:09;;;;;;;5.82;4.07;;;9.20;99.90;;;;;;5075144;28;20103;-80
2020/12/20 09:14:35;;;;;;;5.65;3.85;;;9.20;99.90;;;;;;5074961;28;20476;-80
2020/12/20 09:17:00;;;;;;;8.90;4.13;;;9.10;99.90;;;;;;5074712;28;20096;-80
2020/12/20 09:19:26;;;;;;;8.70;4.90;;;9.10;99.90;;;;;;5073549;28;20468;-80
2020/12/20 09:21:51;;;;;;;7.20;4.43;;;8.90;99.90;;;;;;5073516;28;20115;-80
2020/12/20 09:24:17;;;;;;;6.72;4.18;;;8.90;99.90;;;;;;5085105;28;20048;-80
2020/12/20 09:26:57;;;;;;;7.88;4.07;;;8.90;99.90;;;;;;5076738;28;20023;-79
2020/12/20 09:29:23;;;;;;;6.57;3.90;;;8.80;99.90;;;;;;5076748;28;20031;-80
2020/12/20 09:31:51;;;;;;;6.07;3.95;;;8.80;99.90;;;;;;5076588;28;20024;-79
2020/12/20 09:34:17;;;;;;;4.90;3.28;;;8.80;99.90;;;;;;5095063;28;20024;-80
2020/12/20 09:36:42;;;;;;;6.95;3.97;;;8.80;99.90;;;;;;5076131;28;20024;-80
2020/12/20 09:39:08;;;;;;;4.30;3.28;;;8.80;99.90;;;;;;5076607;28;20050;-80
2020/12/20 09:41:35;;;;;;;6.35;3.58;;;8.90;99.90;;;;;;5076572;28;20020;-80
2020/12/20 09:44:01;;;;;;;6.78;3.45;;;8.80;99.90;;;;;;5094731;28;20031;-79
2020/12/20 09:46:38;;;;;;;4.35;3.45;;;8.80;99.90;;;;;;5094568;28;20466;-80
2020/12/20 09:49:04;;;;;;;7.28;3.47;;;8.70;99.90;;;;;;5076273;28;20387;-80
2020/12/20 09:51:32;;;;;;;6.50;3.30;;;8.70;99.90;;;;;;5094571;28;20024;-80
2020/12/20 09:53:58;;;;;;;5.97;3.97;;;8.60;99.90;;;;;;5076183;28;20024;-79
2020/12/20 09:56:24;;;;;;;6.25;3.33;;;8.60;99.90;;;;;;5076107;28;20356;-80
2020/12/20 09:58:50;;;;;;;5.07;3.70;;;8.70;99.90;;;;;;5094266;28;20053;-79
2020/12/20 10:01:19;;;;;;;5.80;3.78;;;8.70;99.90;;;;;;5094236;28;20024;-79
2020/12/20 10:03:45;;;;;;;6.28;3.65;;;8.70;99.90;;;;;;5076004;28;20387;-80
2020/12/20 10:06:11;;;;;;;6.25;2.92;;;8.80;99.90;;;;;;5075944;28;20020;-80
2020/12/20 10:08:37;;;;;;;8.50;5.55;;;8.80;99.90;;;;;;5094084;28;20024;-80
2020/12/20 10:11:03;;;;;;;14.02;9.18;;;8.80;99.90;;;;;;5075870;28;20024;-80
2020/12/20 10:13:29;;;;;;;6.82;4.75;;;8.80;99.90;;;;;;5094012;28;20027;-80
2020/12/20 10:15:54;;;;;;;7.40;4.90;;;8.80;99.90;;;;;;5075797;28;20031;-80
2020/12/20 10:18:20;;;;;;;12.13;4.38;;;8.90;99.90;;;;;;5093949;28;20031;-80
2020/12/20 10:20:46;;;;;;;11.40;6.85;;;9.00;99.90;;;;;;5075780;28;20042;-80
2020/12/20 10:23:12;;;;;;;10.65;5.75;;;9.00;99.90;;;;;;5093874;28;20028;-80
2020/12/20 10:25:40;;;;;;;11.65;4.28;;;9.10;99.90;;;;;;5093846;28;20028;-80
2020/12/20 10:28:06;;;;;;;5.15;3.58;;;9.10;99.90;;;;;;5075684;28;20024;-80
2020/12/20 10:30:32;;;;;;;6.20;3.60;;;9.20;99.90;;;;;;5093822;28;20502;-80
2020/12/20 10:32:58;;;;;;;4.75;3.25;;;9.30;99.90;;;;;;5093767;28;20020;-80
2020/12/20 10:35:24;;;;;;;6.07;3.20;;;9.40;99.90;;;;;;5075683;28;20024;-80
2020/12/20 10:37:51;;;;;;;5.47;3.10;;;9.50;99.90;;;;;;5075596;28;20111;-80
2020/12/20 10:40:18;;;;;;;7.15;4.72;;;9.70;99.90;;;;;;5093692;28;20107;-80
2020/12/20 10:42:46;;;;;;;5.88;4.18;;;9.90;99.90;;;;;;5075566;28;20031;-80
2020/12/20 10:45:13;;;;;;;7.25;3.78;;;10.10;99.90;;;;;;5075580;28;20024;-80
2020/12/20 10:47:39;;;;;;;7.28;3.33;;;10.50;99.90;;;;;;5093354;28;20024;-80
2020/12/20 10:50:05;;;;;;;7.45;3.15;;;10.80;99.90;;;;;;5074913;28;20055;-80
2020/12/20 10:52:31;;;;;;;4.72;2.90;;;11.00;99.90;;;;;;5075903;28;20382;-80
2020/12/20 10:54:56;;;;;;;5.63;2.78;;;10.90;99.90;;;;;;5075468;28;20025;-80
2020/12/20 10:57:22;;;;;;;6.00;3.22;;;10.80;99.90;;;;;;5075376;28;20044;-80
2020/12/20 10:59:48;;;;;;;32.80;18.20;;;10.60;99.90;;;;;;5093776;28;20421;-80
2020/12/20 11:02:14;;;;;;;17.38;9.63;;;10.50;99.90;;;;;;5075409;28;20020;-79
2020/12/20 11:04:39;;;;;;;5.30;2.70;;;10.40;99.90;;;;;;5093705;28;20024;-80
2020/12/20 11:07:05;;;;;;;5.90;2.90;;;10.30;99.90;;;;;;5075305;28;20131;-80
2020/12/20 11:09:31;;;;;;;5.03;3.03;;;10.30;99.90;;;;;;5093387;28;20020;-80
2020/12/20 11:11:57;;;;;;;6.53;3.20;;;10.20;99.90;;;;;;5093370;28;20469;-80
2020/12/20 11:14:23;;;;;;;6.68;3.85;;;10.20;99.90;;;;;;5093342;28;20398;-79
2020/12/20 11:16:53;;;;;;;7.18;4.68;;;10.20;99.90;;;;;;5093589;28;20367;-80
2020/12/20 11:19:20;;;;;;;10.48;7.43;;;10.20;99.90;;;;;;5093343;28;20017;-79
2020/12/20 11:21:47;;;;;;;20.50;10.88;;;10.20;99.90;;;;;;5075233;28;20028;-78
2020/12/20 11:24:13;;;;;;;10.85;7.25;;;10.30;99.90;;;;;;5071460;28;20044;-78
2020/12/20 11:26:44;;;;;;;12.68;6.88;;;10.30;99.90;;;;;;5073132;28;20028;-78
2020/12/20 11:29:11;;;;;;;9.57;6.45;;;10.30;99.90;;;;;;5071768;28;20033;-78
2020/12/20 11:31:37;;;;;;;7.30;4.28;;;10.40;99.90;;;;;;5071662;28;20032;-79
2020/12/20 11:34:02;;;;;;;12.32;5.13;;;10.60;99.90;;;;;;5071645;28;20467;-80
2020/12/20 11:36:28;;;;;;;10.70;5.22;;;10.80;99.90;;;;;;5073236;28;20025;-80
2020/12/20 11:38:54;;;;;;;13.50;7.13;;;10.90;99.90;;;;;;5071766;28;20031;-80
2020/12/20 11:41:21;;;;;;;7.28;4.07;;;10.90;99.90;;;;;;5071691;28;20414;-79
2020/12/20 11:43:47;;;;;;;7.68;5.05;;;10.90;99.90;;;;;;5071803;28;20029;-80
2020/12/20 11:46:13;;;;;;;6.75;4.70;;;11.00;99.90;;;;;;5072885;28;20025;-80
2020/12/20 11:48:39;;;;;;;7.07;4.40;;;11.10;99.90;;;;;;5072883;28;20039;-80
2020/12/20 11:51:05;;;;;;;6.70;4.22;;;11.00;99.90;;;;;;5073138;28;20059;-80
2020/12/20 11:53:31;;;;;;;9.10;4.65;;;10.90;99.90;;;;;;5072837;28;20059;-80
2020/12/20 11:55:56;;;;;;;7.88;4.32;;;10.80;99.90;;;;;;5072902;28;20044;-80
2020/12/20 11:58:22;;;;;;;9.48;5.35;;;10.60;99.90;;;;;;5072781;28;20024;-80
2020/12/20 12:00:48;;;;;;;7.53;5.10;;;10.50;99.90;;;;;;5075279;28;20024;-80
2020/12/20 12:03:17;;;;;;;7.13;3.90;;;10.50;99.90;;;;;;5075008;28;20480;-79
2020/12/20 12:05:44;;;;;;;9.13;4.72;;;10.40;99.90;;;;;;5076285;28;20516;-80
2020/12/20 12:08:11;;;;;;;15.90;7.40;;;10.30;99.90;;;;;;5074966;28;20024;-80
2020/12/20 12:10:41;;;;;;;13.05;6.20;;;10.20;99.90;;;;;;5076115;28;20036;-80
2020/12/20 12:13:07;;;;;;;9.02;5.35;;;10.20;99.90;;;;;;5076351;28;20075;-80
2020/12/20 12:15:33;;;;;;;10.88;5.90;;;10.10;99.90;;;;;;5074730;28;20472;-80
2020/12/20 12:17:59;;;;;;;8.88;5.90;;;10.10;99.90;;;;;;5074717;28;20051;-80
2020/12/20 12:20:25;;;;;;;13.85;6.40;;;10.00;99.90;;;;;;5074687;28;20025;-80
2020/12/20 12:22:50;;;;;;;7.53;4.68;;;10.00;99.90;;;;;;5074697;28;20392;-79
2020/12/20 12:25:17;;;;;;;7.15;4.32;;;10.00;99.90;;;;;;5074301;28;20052;-79
2020/12/20 12:27:42;;;;;;;8.05;4.80;;;10.00;99.90;;;;;;5074579;28;20112;-80
2020/12/20 12:30:10;;;;;;;9.55;4.93;;;10.00;99.90;;;;;;5075700;28;20107;-80
2020/12/20 12:32:36;;;;;;;10.88;5.32;;;10.00;99.90;;;;;;5075758;28;20468;-80
2020/12/20 12:35:03;;;;;;;10.52;5.47;;;10.00;99.90;;;;;;5075868;28;20024;-79
2020/12/20 12:37:29;;;;;;;8.80;5.50;;;10.00;99.90;;;;;;5075636;28;20059;-79
2020/12/20 12:39:55;;;;;;;11.48;6.95;;;10.10;99.90;;;;;;5076140;28;20476;-79
2020/12/20 12:42:20;;;;;;;18.58;14.38;;;10.00;99.90;;;;;;5075569;28;20032;-80
2020/12/20 12:44:46;;;;;;;22.10;13.52;;;9.90;99.90;;;;;;5075850;28;20020;-79
2020/12/20 12:47:12;;;;;;;20.77;13.15;;;9.90;99.90;;;;;;5074252;28;20035;-79
2020/12/20 12:49:38;;;;;;;22.60;14.20;;;9.90;99.90;;;;;;5074140;28;20365;-80
2020/12/20 12:52:04;;;;;;;25.80;13.20;;;9.90;99.90;;;;;;5075282;28;20024;-80
2020/12/20 12:54:30;;;;;;;16.00;10.52;;;9.90;99.90;;;;;;5073971;28;20021;-80
2020/12/20 12:56:57;;;;;;;26.48;17.88;;;9.90;99.90;;;;;;5075222;28;20021;-79